No.16 Zen Maru — JJ3834 — position and weather

sailwx.info

Track history (hours):
 
Tides and Currents Weather Stations Pressure Air Temp Water Temp Dewpoint Dewpoint Depression Visibility Wind Speed Wind Dir Waves Ship Positions

No.16 Zen Maru

Last reported at 2018-Apr-19 10:54 UTC. Time now 2018-Apr-19 19:28 UTC.
Position N 34°41' E 134°49'.

Length 70 m.

Type: Ship. MMSI: 431300421.

Date/timePositionNaut miles runAvg speedWind from/ knotsBaromVisibWave heightAir tempDewpointWater temp
2018-Apr-19 10:54N 34°41' E 134°49'1 0.2
2018-Apr-19 03:42N 34°42' E 134°50'0 0.3
2018-Apr-19 03:20N 34°42' E 134°50'0 0.0
2018-Apr-19 02:56N 34°42' E 134°50'0 0.0
2018-Apr-19 02:29N 34°42' E 134°50'0 0.0
2018-Apr-19 01:56N 34°42' E 134°50'0 0.0
2018-Apr-19 01:27N 34°42' E 134°50'0 0.0
2018-Apr-19 00:59N 34°42' E 134°50'2 4.0
2018-Apr-19 00:29N 34°40' E 134°50'612.8
2018-Apr-19 00:00N 34°38' E 134°57'713.2
2018-Apr-18 23:30N 34°37' E 135°05'4 6.9
2018-Apr-18 22:58N 34°39' E 135°09'0 0.0
2018-Apr-18 22:28N 34°39' E 135°09'0 0.0
2018-Apr-18 21:55N 34°39' E 135°09'0 0.0
2018-Apr-18 21:19N 34°39' E 135°09'0 0.0
2018-Apr-18 20:58N 34°39' E 135°09'0 0.0
2018-Apr-18 20:29N 34°39' E 135°09'0 0.0
2018-Apr-18 19:59N 34°39' E 135°09'0 0.0
2018-Apr-18 19:29N 34°39' E 135°09'0 0.0
2018-Apr-18 18:59N 34°39' E 135°09'0 0.0
2018-Apr-18 18:29N 34°39' E 135°09'0 0.0
2018-Apr-18 17:59N 34°39' E 135°09'0 0.0
2018-Apr-18 17:29N 34°39' E 135°09'0 0.0
2018-Apr-18 16:59N 34°39' E 135°09'0 0.0
2018-Apr-18 16:29N 34°39' E 135°09'0 0.0
2018-Apr-18 15:59N 34°39' E 135°09'0 0.0
2018-Apr-18 15:29N 34°39' E 135°09'0 0.0
2018-Apr-18 14:59N 34°39' E 135°09'0 0.0
2018-Apr-18 14:29N 34°39' E 135°09'0 0.0
2018-Apr-18 13:59N 34°39' E 135°09'0 0.0
2018-Apr-18 13:29N 34°39' E 135°09'0 0.0
2018-Apr-18 12:59N 34°39' E 135°09'0 0.0
2018-Apr-18 12:29N 34°39' E 135°09'0 0.0
2018-Apr-18 11:59N 34°39' E 135°09'0 0.0
2018-Apr-18 11:29N 34°39' E 135°09'0 0.0
2018-Apr-18 10:59N 34°39' E 135°09'0 0.0
2018-Apr-18 10:30N 34°39' E 135°09'2 3.8
2018-Apr-18 10:01N 34°37' E 135°08'4 8.7
2018-Apr-18 09:30N 34°36' E 135°03'510.2
2018-Apr-18 09:00N 34°36' E 134°57'510.9
2018-Apr-18 08:30N 34°39' E 134°51'3 0.5
2018-Apr-18 02:14N 34°42' E 134°50'1 0.1
2018-Apr-17 12:06N 34°43' E 134°51'2 8.2
2018-Apr-17 11:53N 34°41' E 134°50'512.8
2018-Apr-17 11:30N 34°38' E 134°54'715.1
2018-Apr-17 11:00N 34°36' E 135°03'611.7
2018-Apr-17 10:30N 34°30' E 135°04'713.3
2018-Apr-17 10:00N 34°24' E 135°02'613.0
2018-Apr-17 09:30N 34°18' E 134°60'612.3
2018-Apr-17 08:59N 34°11' E 134°60'612.4
2018-Apr-17 08:30N 34°05' E 135°01'712.5
2018-Apr-17 07:58N 33°59' E 135°02'4 0.2
2018-Apr-16 10:35N 33°54' E 135°02'111.2
2018-Apr-16 10:30N 33°55' E 135°02'610.9
2018-Apr-16 09:56N 34°01' E 135°00'510.5
2018-Apr-16 09:30N 34°06' E 134°60'611.2
2018-Apr-16 08:58N 34°12' E 134°59'511.4
2018-Apr-16 08:30N 34°17' E 134°59'510.5
2018-Apr-16 08:00N 34°22' E 134°59'510.4
2018-Apr-16 07:29N 34°27' E 135°00'510.1
2018-Apr-16 07:00N 34°32' E 135°02'5 9.6
2018-Apr-16 06:30N 34°37' E 135°01'712.8
2018-Apr-16 06:00N 34°38' E 134°53'5 3.3
2018-Apr-16 04:21N 34°42' E 134°50'0 0.0
2018-Apr-16 03:57N 34°42' E 134°50'0 0.0
2018-Apr-16 03:27N 34°42' E 134°50'0 0.0
2018-Apr-15 22:14N 34°42' E 134°50'1 3.7
2018-Apr-15 21:59N 34°43' E 134°51'0 0.1
2018-Apr-15 18:46N 34°43' E 134°51'0 0.0
2018-Apr-15 16:40N 34°43' E 134°51'0 0.0
2018-Apr-15 16:10N 34°43' E 134°51'0 0.0
2018-Apr-15 15:46N 34°43' E 134°51'0 0.0
2018-Apr-15 15:16N 34°43' E 134°51'0 0.0
2018-Apr-15 13:34N 34°43' E 134°51'0 0.0
2018-Apr-15 13:16N 34°43' E 134°51'0 0.0
2018-Apr-15 12:58N 34°43' E 134°51'0 0.0
2018-Apr-15 07:40N 34°43' E 134°51'0 0.0
2018-Apr-15 07:04N 34°43' E 134°51'0 0.0
2018-Apr-15 03:40N 34°43' E 134°51'0 0.0
2018-Apr-15 02:16N 34°43' E 134°51'0 0.0
2018-Apr-14 04:16N 34°43' E 134°51'0 0.0
2018-Apr-14 03:52N 34°43' E 134°51'0 0.0
2018-Apr-14 01:52N 34°43' E 134°51'0 0.0
2018-Apr-14 00:28N 34°43' E 134°51'0 0.0
2018-Apr-13 23:58N 34°43' E 134°51'0 0.0
2018-Apr-13 20:10N 34°43' E 134°51'0 0.0
2018-Apr-13 19:58N 34°43' E 134°51'0 0.0
2018-Apr-13 19:22N 34°43' E 134°51'0 0.0
2018-Apr-13 18:02N 34°43' E 134°51'0 0.0
2018-Apr-13 17:55N 34°43' E 134°51'1 1.3
2018-Apr-13 17:14N 34°42' E 134°50'1 6.0
2018-Apr-13 17:00N 34°41' E 134°49'0 0.0
2018-Apr-12 09:42N 34°41' E 134°49'1 0.2
2018-Apr-12 03:27N 34°42' E 134°51'0 0.0
2018-Apr-12 02:57N 34°42' E 134°51'1 2.1
2018-Apr-12 02:25N 34°41' E 134°50'4 9.4
2018-Apr-12 01:58N 34°38' E 134°54'510.4
2018-Apr-12 01:30N 34°38' E 134°60'5 9.8
2018-Apr-12 01:00N 34°37' E 135°06'4 7.2
2018-Apr-12 00:30N 34°39' E 135°09'0 0.0
2018-Apr-12 00:00N 34°39' E 135°09'0 0.0
2018-Apr-11 23:30N 34°39' E 135°09'0 0.0
2018-Apr-11 23:00N 34°39' E 135°09'0 0.0
2018-Apr-11 22:30N 34°39' E 135°09'0 0.0
2018-Apr-11 22:00N 34°39' E 135°09'0 0.0
2018-Apr-11 21:30N 34°39' E 135°09'0 0.0
2018-Apr-11 21:00N 34°39' E 135°09'1 1.4
2018-Apr-11 20:30N 34°38' E 135°09'0 0.0
2018-Apr-11 20:00N 34°38' E 135°09'0 0.0
2018-Apr-11 19:30N 34°38' E 135°09'0 0.0
2018-Apr-11 19:00N 34°38' E 135°09'0 0.0
2018-Apr-11 18:30N 34°38' E 135°09'0 0.0
2018-Apr-11 18:00N 34°38' E 135°09'0 0.0
2018-Apr-11 17:30N 34°38' E 135°09'0 0.0
2018-Apr-11 17:00N 34°38' E 135°09'0 0.0
2018-Apr-11 16:30N 34°38' E 135°09'0 0.0
2018-Apr-11 16:00N 34°38' E 135°09'0 0.1
2018-Apr-11 15:30N 34°38' E 135°09'0 0.0
2018-Apr-11 15:00N 34°38' E 135°09'0 0.0
2018-Apr-11 14:30N 34°38' E 135°09'0 0.0
2018-Apr-11 14:00N 34°38' E 135°09'0 0.0
2018-Apr-11 13:30N 34°38' E 135°09'0 0.0
2018-Apr-11 13:00N 34°38' E 135°09'0 0.0
2018-Apr-11 12:30N 34°38' E 135°09'0 0.1
2018-Apr-11 11:58N 34°38' E 135°09'4 8.5
2018-Apr-11 11:30N 34°36' E 135°06'5 9.2
2018-Apr-11 11:00N 34°37' E 135°01'5 9.7
2018-Apr-11 10:30N 34°37' E 134°55'510.2
2018-Apr-11 09:59N 34°40' E 134°50'2 0.3
2018-Apr-11 03:20N 34°42' E 134°50'1 0.3
2018-Apr-11 00:19N 34°43' E 134°51'0 0.0
2018-Apr-10 22:19N 34°43' E 134°51'0 0.0
2018-Apr-10 21:55N 34°43' E 134°51'0 0.0
2018-Apr-10 18:07N 34°43' E 134°51'0 0.0
2018-Apr-10 17:31N 34°43' E 134°51'0 0.0
2018-Apr-10 17:25N 34°43' E 134°51'0 0.0
2018-Apr-10 12:14N 34°43' E 134°51'2 7.6
2018-Apr-10 11:58N 34°41' E 134°50'510.9
2018-Apr-10 11:30N 34°38' E 134°55'612.2
2018-Apr-10 11:00N 34°37' E 135°02'510.4
2018-Apr-10 10:30N 34°32' E 135°04'713.2
2018-Apr-10 10:00N 34°25' E 135°02'713.2
2018-Apr-10 09:29N 34°19' E 135°00'612.3
2018-Apr-10 09:00N 34°13' E 134°60'712.5
2018-Apr-10 08:25N 34°06' E 135°01'512.7
2018-Apr-10 08:00N 34°00' E 135°01'  
Track history (hours):
 
Tides and Currents Weather Stations Pressure Air Temp Water Temp Dewpoint Dewpoint Depression Visibility Wind Speed Wind Dir Waves Ship Positions

No.16 Zen Maru

Last reported at 2018-Apr-19 10:54 UTC. Time now 2018-Apr-19 19:28 UTC.
Position N 34°41' E 134°49'.

Length 70 m.

Type: Ship. MMSI: 431300421.

Date/timePositionNaut miles runAvg speedWind from/ knotsBaromVisibWave heightAir tempDewpointWater temp
2018-Apr-19 10:54N 34°41' E 134°49'1 0.2
2018-Apr-19 03:42N 34°42' E 134°50'0 0.3
2018-Apr-19 03:20N 34°42' E 134°50'0 0.0
2018-Apr-19 02:56N 34°42' E 134°50'0 0.0
2018-Apr-19 02:29N 34°42' E 134°50'0 0.0
2018-Apr-19 01:56N 34°42' E 134°50'0 0.0
2018-Apr-19 01:27N 34°42' E 134°50'0 0.0
2018-Apr-19 00:59N 34°42' E 134°50'2 4.0
2018-Apr-19 00:29N 34°40' E 134°50'612.8
2018-Apr-19 00:00N 34°38' E 134°57'713.2
2018-Apr-18 23:30N 34°37' E 135°05'4 6.9
2018-Apr-18 22:58N 34°39' E 135°09'0 0.0
2018-Apr-18 22:28N 34°39' E 135°09'0 0.0
2018-Apr-18 21:55N 34°39' E 135°09'0 0.0
2018-Apr-18 21:19N 34°39' E 135°09'0 0.0
2018-Apr-18 20:58N 34°39' E 135°09'0 0.0
2018-Apr-18 20:29N 34°39' E 135°09'0 0.0
2018-Apr-18 19:59N 34°39' E 135°09'0 0.0
2018-Apr-18 19:29N 34°39' E 135°09'0 0.0
2018-Apr-18 18:59N 34°39' E 135°09'0 0.0
2018-Apr-18 18:29N 34°39' E 135°09'0 0.0
2018-Apr-18 17:59N 34°39' E 135°09'0 0.0
2018-Apr-18 17:29N 34°39' E 135°09'0 0.0
2018-Apr-18 16:59N 34°39' E 135°09'0 0.0
2018-Apr-18 16:29N 34°39' E 135°09'0 0.0
2018-Apr-18 15:59N 34°39' E 135°09'0 0.0
2018-Apr-18 15:29N 34°39' E 135°09'0 0.0
2018-Apr-18 14:59N 34°39' E 135°09'0 0.0
2018-Apr-18 14:29N 34°39' E 135°09'0 0.0
2018-Apr-18 13:59N 34°39' E 135°09'0 0.0
2018-Apr-18 13:29N 34°39' E 135°09'0 0.0
2018-Apr-18 12:59N 34°39' E 135°09'0 0.0
2018-Apr-18 12:29N 34°39' E 135°09'0 0.0
2018-Apr-18 11:59N 34°39' E 135°09'0 0.0
2018-Apr-18 11:29N 34°39' E 135°09'0 0.0
2018-Apr-18 10:59N 34°39' E 135°09'0 0.0
2018-Apr-18 10:30N 34°39' E 135°09'2 3.8
2018-Apr-18 10:01N 34°37' E 135°08'4 8.7
2018-Apr-18 09:30N 34°36' E 135°03'510.2
2018-Apr-18 09:00N 34°36' E 134°57'510.9
2018-Apr-18 08:30N 34°39' E 134°51'3 0.5
2018-Apr-18 02:14N 34°42' E 134°50'1 0.1
2018-Apr-17 12:06N 34°43' E 134°51'2 8.2
2018-Apr-17 11:53N 34°41' E 134°50'512.8
2018-Apr-17 11:30N 34°38' E 134°54'715.1
2018-Apr-17 11:00N 34°36' E 135°03'611.7
2018-Apr-17 10:30N 34°30' E 135°04'713.3
2018-Apr-17 10:00N 34°24' E 135°02'613.0
2018-Apr-17 09:30N 34°18' E 134°60'612.3
2018-Apr-17 08:59N 34°11' E 134°60'612.4
2018-Apr-17 08:30N 34°05' E 135°01'712.5
2018-Apr-17 07:58N 33°59' E 135°02'4 0.2
2018-Apr-16 10:35N 33°54' E 135°02'111.2
2018-Apr-16 10:30N 33°55' E 135°02'610.9
2018-Apr-16 09:56N 34°01' E 135°00'510.5
2018-Apr-16 09:30N 34°06' E 134°60'611.2
2018-Apr-16 08:58N 34°12' E 134°59'511.4
2018-Apr-16 08:30N 34°17' E 134°59'510.5
2018-Apr-16 08:00N 34°22' E 134°59'510.4
2018-Apr-16 07:29N 34°27' E 135°00'510.1
2018-Apr-16 07:00N 34°32' E 135°02'5 9.6
2018-Apr-16 06:30N 34°37' E 135°01'712.8
2018-Apr-16 06:00N 34°38' E 134°53'5 3.3
2018-Apr-16 04:21N 34°42' E 134°50'0 0.0
2018-Apr-16 03:57N 34°42' E 134°50'0 0.0
2018-Apr-16 03:27N 34°42' E 134°50'0 0.0
2018-Apr-15 22:14N 34°42' E 134°50'1 3.7
2018-Apr-15 21:59N 34°43' E 134°51'0 0.1
2018-Apr-15 18:46N 34°43' E 134°51'0 0.0
2018-Apr-15 16:40N 34°43' E 134°51'0 0.0
2018-Apr-15 16:10N 34°43' E 134°51'0 0.0
2018-Apr-15 15:46N 34°43' E 134°51'0 0.0
2018-Apr-15 15:16N 34°43' E 134°51'0 0.0
2018-Apr-15 13:34N 34°43' E 134°51'0 0.0
2018-Apr-15 13:16N 34°43' E 134°51'0 0.0
2018-Apr-15 12:58N 34°43' E 134°51'0 0.0
2018-Apr-15 07:40N 34°43' E 134°51'0 0.0
2018-Apr-15 07:04N 34°43' E 134°51'0 0.0
2018-Apr-15 03:40N 34°43' E 134°51'0 0.0
2018-Apr-15 02:16N 34°43' E 134°51'0 0.0
2018-Apr-14 04:16N 34°43' E 134°51'0 0.0
2018-Apr-14 03:52N 34°43' E 134°51'0 0.0
2018-Apr-14 01:52N 34°43' E 134°51'0 0.0
2018-Apr-14 00:28N 34°43' E 134°51'0 0.0
2018-Apr-13 23:58N 34°43' E 134°51'0 0.0
2018-Apr-13 20:10N 34°43' E 134°51'0 0.0
2018-Apr-13 19:58N 34°43' E 134°51'0 0.0
2018-Apr-13 19:22N 34°43' E 134°51'0 0.0
2018-Apr-13 18:02N 34°43' E 134°51'0 0.0
2018-Apr-13 17:55N 34°43' E 134°51'1 1.3
2018-Apr-13 17:14N 34°42' E 134°50'1 6.0
2018-Apr-13 17:00N 34°41' E 134°49'0 0.0
2018-Apr-12 09:42N 34°41' E 134°49'1 0.2
2018-Apr-12 03:27N 34°42' E 134°51'0 0.0
2018-Apr-12 02:57N 34°42' E 134°51'1 2.1
2018-Apr-12 02:25N 34°41' E 134°50'4 9.4
2018-Apr-12 01:58N 34°38' E 134°54'510.4
2018-Apr-12 01:30N 34°38' E 134°60'5 9.8
2018-Apr-12 01:00N 34°37' E 135°06'4 7.2
2018-Apr-12 00:30N 34°39' E 135°09'0 0.0
2018-Apr-12 00:00N 34°39' E 135°09'0 0.0
2018-Apr-11 23:30N 34°39' E 135°09'0 0.0
2018-Apr-11 23:00N 34°39' E 135°09'0 0.0
2018-Apr-11 22:30N 34°39' E 135°09'0 0.0
2018-Apr-11 22:00N 34°39' E 135°09'0 0.0
2018-Apr-11 21:30N 34°39' E 135°09'0 0.0
2018-Apr-11 21:00N 34°39' E 135°09'1 1.4
2018-Apr-11 20:30N 34°38' E 135°09'0 0.0
2018-Apr-11 20:00N 34°38' E 135°09'0 0.0
2018-Apr-11 19:30N 34°38' E 135°09'0 0.0
2018-Apr-11 19:00N 34°38' E 135°09'0 0.0
2018-Apr-11 18:30N 34°38' E 135°09'0 0.0
2018-Apr-11 18:00N 34°38' E 135°09'0 0.0
2018-Apr-11 17:30N 34°38' E 135°09'0 0.0
2018-Apr-11 17:00N 34°38' E 135°09'0 0.0
2018-Apr-11 16:30N 34°38' E 135°09'0 0.0
2018-Apr-11 16:00N 34°38' E 135°09'0 0.1
2018-Apr-11 15:30N 34°38' E 135°09'0 0.0
2018-Apr-11 15:00N 34°38' E 135°09'0 0.0
2018-Apr-11 14:30N 34°38' E 135°09'0 0.0
2018-Apr-11 14:00N 34°38' E 135°09'0 0.0
2018-Apr-11 13:30N 34°38' E 135°09'0 0.0
2018-Apr-11 13:00N 34°38' E 135°09'0 0.0
2018-Apr-11 12:30N 34°38' E 135°09'0 0.1
2018-Apr-11 11:58N 34°38' E 135°09'4 8.5
2018-Apr-11 11:30N 34°36' E 135°06'5 9.2
2018-Apr-11 11:00N 34°37' E 135°01'5 9.7
2018-Apr-11 10:30N 34°37' E 134°55'510.2
2018-Apr-11 09:59N 34°40' E 134°50'2 0.3
2018-Apr-11 03:20N 34°42' E 134°50'1 0.3
2018-Apr-11 00:19N 34°43' E 134°51'0 0.0
2018-Apr-10 22:19N 34°43' E 134°51'0 0.0
2018-Apr-10 21:55N 34°43' E 134°51'0 0.0
2018-Apr-10 18:07N 34°43' E 134°51'0 0.0
2018-Apr-10 17:31N 34°43' E 134°51'0 0.0
2018-Apr-10 17:25N 34°43' E 134°51'0 0.0
2018-Apr-10 12:14N 34°43' E 134°51'2 7.6
2018-Apr-10 11:58N 34°41' E 134°50'510.9
2018-Apr-10 11:30N 34°38' E 134°55'612.2
2018-Apr-10 11:00N 34°37' E 135°02'510.4
2018-Apr-10 10:30N 34°32' E 135°04'713.2
2018-Apr-10 10:00N 34°25' E 135°02'713.2
2018-Apr-10 09:29N 34°19' E 135°00'612.3
2018-Apr-10 09:00N 34°13' E 134°60'712.5
2018-Apr-10 08:25N 34°06' E 135°01'512.7
2018-Apr-10 08:00N 34°00' E 135°01'  

Dump ship's entire track history